KDYR

Details ICAO KDYR
Name DYERSBURG RGNL
Region United States
Timezone America/Chicago (UTC-6.0)
Plans Departing 10
Arriving 7
Stats Elevation 338 ft / 103 m (AMSL)
Location 35.998317° -89.406368°
Runways 2
Magnetic Variation 1.853° W
Sunrise 2017-12-14 13:01:49 UTC / 2017-12-14 07:01:49 Local
Sunset 2017-12-14 22:45:50 UTC / 2017-12-14 16:45:50 Local
Advertisement - Login to hide

Runways

ID Width Length Bearing (true) Bearing (mag) Surface Threshold Offset Overrun Length
04 100 ft / 30 m 5,701 ft / 1,738 m 40.41° 42.26° Asphalt 0 ft / 0 m 0 ft / 0 m
16 75 ft / 23 m 4,008 ft / 1,222 m 161.62° 163.47° Asphalt 0 ft / 0 m 0 ft / 0 m
22 100 ft / 30 m 5,701 ft / 1,738 m 220.42° 222.27° Asphalt 694 ft / 212 m 0 ft / 0 m
34 75 ft / 23 m 4,008 ft / 1,222 m 341.62° 343.47° Asphalt 0 ft / 0 m 0 ft / 0 m

Map

Weather


0- 5 10 15 20 25 30 35+ Temperature / ° C

Clouds and Precipitation
Forecast for 2017-12-14 18:00 UTC. Updated 17 minutes ago

Ground ~20,000 ft ~40,000 ft Winds

METAR

KDYR 141656Z AUTO 05007KT 10SM OVC040 06/M03 A3008 RMK AO2 SLP203 T00561033 PNO $

TAF

Not found

Frequencies

Recorded 135.62 MHz AWOS 3
Unicom 123.05 MHz CTAF/UNICOM
Warning: Do not use this data for real-world aviation or navigation. No guarantee of current accuracy is given.